createdAt,value
2023-02-15T00:04:08.080Z,101958.31
2023-02-15T00:09:11.151Z,101949.47
2023-02-15T00:14:18.307Z,101940.50
2023-02-15T00:19:22.146Z,101945.59
2023-02-15T00:24:23.794Z,101947.03
2023-02-15T00:29:25.506Z,101944.50
2023-02-15T00:34:28.697Z,101941.69
2023-02-15T00:39:30.253Z,101939.53
2023-02-15T00:44:31.739Z,101934.78
2023-02-15T00:49:33.348Z,101929.63
2023-02-15T00:54:34.841Z,101936.31
2023-02-15T00:59:36.359Z,101930.06
2023-02-15T01:04:37.884Z,101928.78
2023-02-15T01:09:39.400Z,101924.41
2023-02-15T01:14:40.956Z,101924.06
2023-02-15T01:19:42.611Z,101918.59
2023-02-15T01:24:44.242Z,101921.78
2023-02-15T01:29:45.769Z,101915.53
2023-02-15T01:34:47.273Z,101912.94
2023-02-15T01:39:48.805Z,101905.88
2023-02-15T01:44:53.094Z,101909.38
2023-02-15T01:50:21.950Z,101908.78
2023-02-15T01:55:26.866Z,101895.47
2023-02-15T02:00:28.862Z,101901.81
2023-02-15T02:05:31.405Z,101907.41
2023-02-15T02:10:33.098Z,101906.69
2023-02-15T02:15:48.812Z,101905.63
2023-02-15T02:21:22.908Z,101896.97
2023-02-15T02:26:46.355Z,101897.25
2023-02-15T02:31:53.872Z,101880.09
2023-02-15T02:37:13.671Z,101880.91
2023-02-15T02:42:15.111Z,101878.84
2023-02-15T02:47:34.147Z,101869.91
2023-02-15T02:52:40.163Z,101861.00
2023-02-15T02:57:57.166Z,101854.16
2023-02-15T03:03:05.213Z,101850.34
2023-02-15T03:08:09.191Z,101845.31
2023-02-15T03:13:10.669Z,101840.41
2023-02-15T03:18:12.633Z,101838.63
2023-02-15T03:23:21.605Z,101825.97
2023-02-15T03:28:31.728Z,101826.69
2023-02-15T03:33:36.811Z,101822.84
2023-02-15T03:38:53.575Z,101809.66
2023-02-15T03:44:05.481Z,101819.16
2023-02-15T03:49:16.732Z,101813.22
2023-02-15T03:54:31.002Z,101816.22
2023-02-15T03:59:32.575Z,101809.91
2023-02-15T04:04:37.457Z,101805.59
2023-02-15T04:09:38.995Z,101807.84
2023-02-15T04:14:40.466Z,101815.75
2023-02-15T04:19:41.954Z,101822.28
2023-02-15T04:24:43.396Z,101828.06
2023-02-15T04:29:44.895Z,101821.97
2023-02-15T04:34:46.334Z,101822.06
2023-02-15T04:39:47.916Z,101814.31
2023-02-15T04:44:49.571Z,101815.69
2023-02-15T04:49:51.152Z,101815.44
2023-02-15T04:54:52.632Z,101813.41
2023-02-15T04:59:54.219Z,101810.06
2023-02-15T05:04:55.654Z,101809.03
2023-02-15T05:09:57.163Z,101807.50
2023-02-15T05:14:58.622Z,101802.78
2023-02-15T05:20:00.145Z,101798.56
2023-02-15T05:25:01.647Z,101796.47
2023-02-15T05:30:03.932Z,101793.38
2023-02-15T05:35:07.657Z,101796.56
2023-02-15T05:40:09.706Z,101809.47
2023-02-15T05:45:11.210Z,101796.91
2023-02-15T05:50:12.916Z,101798.78
2023-02-15T05:55:14.294Z,101802.75
2023-02-15T06:00:16.215Z,101801.09
2023-02-15T06:05:17.702Z,101801.09
2023-02-15T06:10:19.240Z,101808.31
2023-02-15T06:15:20.654Z,101808.69
2023-02-15T06:20:22.141Z,101809.50
2023-02-15T06:25:23.609Z,101810.91
2023-02-15T06:30:25.243Z,101806.25
2023-02-15T06:35:26.724Z,101810.69
2023-02-15T06:40:28.219Z,101813.44
2023-02-15T06:45:29.625Z,101819.47
2023-02-15T06:50:31.153Z,101806.69
2023-02-15T06:55:32.649Z,101809.53
2023-02-15T07:00:34.154Z,101812.63
2023-02-15T07:05:35.884Z,101818.66
2023-02-15T07:10:37.383Z,101826.66
2023-02-15T07:15:38.858Z,101823.19
2023-02-15T07:20:40.836Z,101822.41
2023-02-15T07:25:42.326Z,101823.16
2023-02-15T07:30:43.740Z,101822.38
2023-02-15T07:35:54.012Z,101823.59
2023-02-15T07:41:07.511Z,101816.94
2023-02-15T07:46:15.197Z,101817.47
2023-02-15T07:51:16.950Z,101821.19
2023-02-15T07:56:18.574Z,101819.88
2023-02-15T08:01:21.862Z,101816.97
2023-02-15T08:06:25.766Z,101803.47
2023-02-15T08:11:38.035Z,101808.84
2023-02-15T08:16:56.554Z,101795.75
2023-02-15T08:22:03.910Z,101784.09
2023-02-15T08:27:07.637Z,101779.03
2023-02-15T08:32:11.645Z,101769.88
2023-02-15T08:37:13.211Z,101763.44
2023-02-15T08:42:14.708Z,101766.00
2023-02-15T08:47:16.168Z,101760.81
2023-02-15T08:52:18.263Z,101759.88
2023-02-15T08:57:19.665Z,101756.59
2023-02-15T09:02:21.219Z,101751.06
2023-02-15T09:07:22.787Z,101748.78
2023-02-15T09:12:24.328Z,101743.34
2023-02-15T09:17:25.820Z,101745.81
2023-02-15T09:22:27.377Z,101745.59
2023-02-15T09:27:28.806Z,101744.84
2023-02-15T09:32:30.288Z,101755.78
2023-02-15T09:37:31.927Z,101752.81
2023-02-15T09:43:19.400Z,101748.03
2023-02-15T09:48:20.787Z,101762.06
2023-02-15T09:53:50.404Z,101772.44
2023-02-15T09:59:00.706Z,101770.63
2023-02-15T10:04:37.055Z,101764.94
2023-02-15T10:10:08.932Z,101765.72
2023-02-15T10:15:24.753Z,101765.13
2023-02-15T10:21:05.836Z,101771.16
2023-02-15T10:26:20.717Z,101771.78
2023-02-15T10:31:35.493Z,101776.97
2023-02-15T10:37:05.731Z,101767.72
2023-02-15T10:42:09.966Z,101767.44
2023-02-15T10:47:39.554Z,101760.63
2023-02-15T10:53:06.561Z,101760.78
2023-02-15T10:58:30.391Z,101750.22
2023-02-15T11:03:37.656Z,101737.97
2023-02-15T11:08:46.211Z,101730.44
2023-02-15T11:13:52.311Z,101724.34
2023-02-15T11:19:07.065Z,101704.06
2023-02-15T11:24:13.580Z,101701.88
2023-02-15T11:29:26.712Z,101703.28
2023-02-15T11:34:44.438Z,101692.53
2023-02-15T11:39:45.992Z,101686.81
2023-02-15T11:44:58.088Z,101679.34
2023-02-15T11:50:00.562Z,101670.78
2023-02-15T11:55:02.248Z,101670.34
2023-02-15T12:00:17.893Z,101672.53
2023-02-15T12:05:24.467Z,101658.63
2023-02-15T12:10:32.996Z,101658.53
2023-02-15T12:15:36.058Z,101656.28
2023-02-15T12:20:44.208Z,101643.50
2023-02-15T12:25:57.322Z,101640.28
2023-02-15T12:30:59.600Z,101637.94
2023-02-15T12:36:13.236Z,101631.22
2023-02-15T12:41:27.076Z,101628.94
2023-02-15T12:46:28.862Z,101611.97
2023-02-15T12:51:30.330Z,101602.03
2023-02-15T12:56:31.875Z,101601.50
2023-02-15T13:01:34.568Z,101600.94
2023-02-15T13:06:37.690Z,101588.19
2023-02-15T13:11:42.446Z,101586.66
2023-02-15T13:16:46.388Z,101577.25
2023-02-15T13:21:54.170Z,101574.63
2023-02-15T13:27:13.168Z,101569.47
2023-02-15T13:32:19.423Z,101564.00
2023-02-15T13:37:54.443Z,101564.84
2023-02-15T13:43:01.690Z,101556.41
2023-02-15T13:48:15.026Z,101552.81
2023-02-15T13:53:36.312Z,101553.44
2023-02-15T13:59:20.960Z,101557.13
2023-02-15T14:04:44.546Z,101556.75
2023-02-15T14:10:16.903Z,101552.88
2023-02-15T14:15:36.410Z,101557.16
2023-02-15T14:20:54.802Z,101551.47
2023-02-15T14:26:01.729Z,101547.25
2023-02-15T14:31:06.768Z,101543.41
2023-02-15T14:36:12.383Z,101544.31
2023-02-15T14:41:33.196Z,101559.34
2023-02-15T14:46:37.806Z,101552.84
2023-02-15T14:51:42.173Z,101553.28
2023-02-15T14:56:45.566Z,101547.06
2023-02-15T15:01:56.243Z,101534.09
2023-02-15T15:07:13.079Z,101534.78
2023-02-15T15:12:26.721Z,101537.59
2023-02-15T15:17:34.205Z,101535.91
2023-02-15T15:22:37.154Z,101539.91
2023-02-15T15:27:53.788Z,101542.31
2023-02-15T15:32:55.239Z,101539.44
2023-02-15T15:38:09.679Z,101542.47
2023-02-15T15:43:42.294Z,101548.16
2023-02-15T15:48:43.901Z,101538.28
2023-02-15T15:53:48.691Z,101539.53
2023-02-15T15:58:55.148Z,101537.75
2023-02-15T16:03:59.519Z,101542.31
2023-02-15T16:09:21.440Z,101539.53
2023-02-15T16:14:31.326Z,101544.00
2023-02-15T16:19:39.140Z,101545.31
2023-02-15T16:24:49.832Z,101550.88
2023-02-15T16:29:51.325Z,101540.75
2023-02-15T16:35:03.199Z,101541.72
2023-02-15T16:40:05.303Z,101533.84
2023-02-15T16:45:14.735Z,101540.56
2023-02-15T16:50:28.719Z,101536.94
2023-02-15T16:55:37.796Z,101543.19
2023-02-15T17:00:39.962Z,101542.72
2023-02-15T17:05:43.527Z,101551.09
2023-02-15T17:11:00.113Z,101548.16
2023-02-15T17:16:02.362Z,101557.84
2023-02-15T17:21:27.193Z,101554.13
2023-02-15T17:26:38.096Z,101549.34
2023-02-15T17:31:39.856Z,101553.66
2023-02-15T17:36:58.564Z,101547.69
2023-02-15T17:42:00.026Z,101543.66
2023-02-15T17:47:01.663Z,101546.84
2023-02-15T17:52:03.364Z,101550.59
2023-02-15T17:57:13.687Z,101544.03
2023-02-15T18:02:15.227Z,101543.19
2023-02-15T18:07:18.885Z,101542.19
2023-02-15T18:12:31.691Z,101538.19
2023-02-15T18:17:39.559Z,101546.44
2023-02-15T18:22:41.486Z,101549.25
2023-02-15T18:27:43.814Z,101544.03
2023-02-15T18:32:47.009Z,101549.09
2023-02-15T18:37:49.699Z,101554.09
2023-02-15T18:42:51.136Z,101551.81
2023-02-15T18:47:52.607Z,101551.25
2023-02-15T18:52:54.190Z,101556.06
2023-02-15T18:57:57.136Z,101565.69
2023-02-15T19:02:59.880Z,101564.72
2023-02-15T19:08:02.454Z,101570.72
2023-02-15T19:13:03.916Z,101570.66
2023-02-15T19:18:05.602Z,101573.53
2023-02-15T19:23:14.536Z,101576.81
2023-02-15T19:28:26.248Z,101580.47
2023-02-15T19:33:27.730Z,101573.44
2023-02-15T19:38:34.186Z,101584.63
2023-02-15T19:43:35.989Z,101575.41
2023-02-15T19:48:37.613Z,101572.28
2023-02-15T19:53:39.423Z,101582.25
2023-02-15T19:58:40.975Z,101574.34
2023-02-15T20:03:42.510Z,101576.53
2023-02-15T20:08:44.737Z,101577.97
2023-02-15T20:13:47.348Z,101567.50
2023-02-15T20:18:49.350Z,101565.66
2023-02-15T20:23:51.007Z,101582.41
2023-02-15T20:28:52.720Z,101582.31
2023-02-15T20:33:54.233Z,101575.94
2023-02-15T20:38:59.167Z,101576.19
2023-02-15T20:44:00.881Z,101577.25
2023-02-15T20:49:02.361Z,101575.28
2023-02-15T20:54:12.607Z,101571.06
2023-02-15T20:59:31.573Z,101574.34
2023-02-15T21:04:34.148Z,101578.53
2023-02-15T21:09:36.636Z,101579.88
2023-02-15T21:14:38.125Z,101587.00
2023-02-15T21:19:41.076Z,101588.91
2023-02-15T21:24:49.034Z,101587.34
2023-02-15T21:29:50.528Z,101594.41
2023-02-15T21:34:52.343Z,101591.34
2023-02-15T21:39:53.874Z,101587.84
2023-02-15T21:44:55.999Z,101586.53
2023-02-15T21:49:57.537Z,101581.22
2023-02-15T21:54:59.006Z,101580.72
2023-02-15T22:00:00.711Z,101581.50
2023-02-15T22:05:02.403Z,101577.22
2023-02-15T22:10:04.041Z,101579.84
2023-02-15T22:15:06.416Z,101581.28
2023-02-15T22:20:14.712Z,101572.69
2023-02-15T22:25:18.630Z,101573.31
2023-02-15T22:30:23.453Z,101573.44
2023-02-15T22:35:30.337Z,101571.84
2023-02-15T22:40:35.389Z,101574.78
2023-02-15T22:45:37.501Z,101575.56
2023-02-15T22:50:39.763Z,101581.84
2023-02-15T22:55:41.658Z,101574.22
2023-02-15T23:00:44.721Z,101566.50
2023-02-15T23:05:46.796Z,101576.50
2023-02-15T23:10:55.428Z,101575.72
2023-02-15T23:15:59.618Z,101573.53
2023-02-15T23:21:04.913Z,101566.56
2023-02-15T23:26:20.698Z,101567.00
2023-02-15T23:31:38.187Z,101554.16
2023-02-15T23:36:39.888Z,101550.28
2023-02-15T23:41:41.562Z,101544.59
2023-02-15T23:46:46.362Z,101543.78
2023-02-15T23:51:54.405Z,101545.78
2023-02-15T23:57:00.234Z,101536.50
